sensor_id;sensor_type;location;lat;lon;timestamp;P1;durP1;ratioP1;P2;durP2;ratioP2
67867;SDS011;54672;46.096;14.470;2023-09-19T00:00:00;27.20;;;12.07;;
67867;SDS011;54672;46.096;14.470;2023-09-19T00:02:26;26.25;;;12.85;;
67867;SDS011;54672;46.096;14.470;2023-09-19T00:04:52;23.80;;;12.93;;
67867;SDS011;54672;46.096;14.470;2023-09-19T00:07:18;20.85;;;12.10;;
67867;SDS011;54672;46.096;14.470;2023-09-19T00:09:44;21.85;;;11.52;;
67867;SDS011;54672;46.096;14.470;2023-09-19T00:12:09;24.00;;;12.02;;
67867;SDS011;54672;46.096;14.470;2023-09-19T00:14:35;20.45;;;11.50;;
67867;SDS011;54672;46.096;14.470;2023-09-19T00:17:03;17.88;;;11.18;;
67867;SDS011;54672;46.096;14.470;2023-09-19T00:19:33;24.58;;;11.93;;
67867;SDS011;54672;46.096;14.470;2023-09-19T00:21:59;18.98;;;11.25;;
67867;SDS011;54672;46.096;14.470;2023-09-19T00:24:25;21.10;;;10.85;;
67867;SDS011;54672;46.096;14.470;2023-09-19T00:26:53;23.42;;;12.25;;
67867;SDS011;54672;46.096;14.470;2023-09-19T00:29:19;18.88;;;11.20;;
67867;SDS011;54672;46.096;14.470;2023-09-19T00:31:44;22.33;;;11.55;;
67867;SDS011;54672;46.096;14.470;2023-09-19T00:34:10;19.05;;;11.50;;
67867;SDS011;54672;46.096;14.470;2023-09-19T00:36:36;21.80;;;12.30;;
67867;SDS011;54672;46.096;14.470;2023-09-19T00:39:07;21.45;;;11.75;;
67867;SDS011;54672;46.096;14.470;2023-09-19T00:41:33;22.92;;;12.55;;
67867;SDS011;54672;46.096;14.470;2023-09-19T00:44:00;19.92;;;11.77;;
67867;SDS011;54672;46.096;14.470;2023-09-19T00:46:27;21.98;;;12.48;;
67867;SDS011;54672;46.096;14.470;2023-09-19T00:48:52;19.02;;;11.05;;
67867;SDS011;54672;46.096;14.470;2023-09-19T00:51:18;20.10;;;11.75;;
67867;SDS011;54672;46.096;14.470;2023-09-19T00:53:47;21.42;;;11.38;;
67867;SDS011;54672;46.096;14.470;2023-09-19T00:56:13;26.17;;;13.10;;
67867;SDS011;54672;46.096;14.470;2023-09-19T00:58:40;21.73;;;11.95;;
67867;SDS011;54672;46.096;14.470;2023-09-19T01:01:05;18.92;;;11.93;;
67867;SDS011;54672;46.096;14.470;2023-09-19T01:03:35;19.00;;;11.38;;
67867;SDS011;54672;46.096;14.470;2023-09-19T01:06:01;22.63;;;12.55;;
67867;SDS011;54672;46.096;14.470;2023-09-19T01:08:27;25.67;;;12.65;;
67867;SDS011;54672;46.096;14.470;2023-09-19T01:11:06;24.02;;;13.05;;
67867;SDS011;54672;46.096;14.470;2023-09-19T01:13:48;25.77;;;12.80;;
67867;SDS011;54672;46.096;14.470;2023-09-19T01:16:32;23.30;;;12.82;;
67867;SDS011;54672;46.096;14.470;2023-09-19T01:24:53;23.15;;;13.13;;
67867;SDS011;54672;46.096;14.470;2023-09-19T01:30:28;21.75;;;11.60;;
67867;SDS011;54672;46.096;14.470;2023-09-19T01:32:58;20.70;;;12.70;;
67867;SDS011;54672;46.096;14.470;2023-09-19T01:35:24;25.55;;;12.70;;
67867;SDS011;54672;46.096;14.470;2023-09-19T01:37:51;21.10;;;12.70;;
67867;SDS011;54672;46.096;14.470;2023-09-19T01:40:18;22.10;;;12.45;;
67867;SDS011;54672;46.096;14.470;2023-09-19T01:48:11;24.15;;;12.75;;
67867;SDS011;54672;46.096;14.470;2023-09-19T01:53:30;24.95;;;13.35;;
67867;SDS011;54672;46.096;14.470;2023-09-19T01:56:00;23.25;;;13.20;;
67867;SDS011;54672;46.096;14.470;2023-09-19T01:58:46;28.40;;;13.90;;
67867;SDS011;54672;46.096;14.470;2023-09-19T02:01:19;29.95;;;14.27;;
67867;SDS011;54672;46.096;14.470;2023-09-19T02:03:47;23.95;;;12.88;;
67867;SDS011;54672;46.096;14.470;2023-09-19T02:06:15;22.25;;;12.60;;
67867;SDS011;54672;46.096;14.470;2023-09-19T02:08:41;25.13;;;14.13;;
67867;SDS011;54672;46.096;14.470;2023-09-19T02:11:06;28.38;;;13.32;;
67867;SDS011;54672;46.096;14.470;2023-09-19T02:13:32;26.25;;;13.20;;
67867;SDS011;54672;46.096;14.470;2023-09-19T02:15:57;25.70;;;13.27;;
67867;SDS011;54672;46.096;14.470;2023-09-19T02:18:23;30.73;;;15.25;;
67867;SDS011;54672;46.096;14.470;2023-09-19T02:20:49;27.00;;;14.05;;
67867;SDS011;54672;46.096;14.470;2023-09-19T02:23:16;36.78;;;15.45;;
67867;SDS011;54672;46.096;14.470;2023-09-19T02:25:42;32.70;;;15.98;;
67867;SDS011;54672;46.096;14.470;2023-09-19T02:28:08;32.53;;;16.10;;
67867;SDS011;54672;46.096;14.470;2023-09-19T02:30:34;31.00;;;15.13;;
67867;SDS011;54672;46.096;14.470;2023-09-19T02:33:01;27.55;;;14.15;;
67867;SDS011;54672;46.096;14.470;2023-09-19T02:35:27;30.00;;;14.80;;
67867;SDS011;54672;46.096;14.470;2023-09-19T02:37:53;32.05;;;14.65;;
67867;SDS011;54672;46.096;14.470;2023-09-19T02:40:18;30.02;;;14.68;;
67867;SDS011;54672;46.096;14.470;2023-09-19T02:42:44;28.60;;;14.68;;
67867;SDS011;54672;46.096;14.470;2023-09-19T02:45:12;30.67;;;14.75;;
67867;SDS011;54672;46.096;14.470;2023-09-19T02:47:39;27.63;;;13.63;;
67867;SDS011;54672;46.096;14.470;2023-09-19T02:50:05;22.98;;;13.48;;
67867;SDS011;54672;46.096;14.470;2023-09-19T02:52:31;27.90;;;13.57;;
67867;SDS011;54672;46.096;14.470;2023-09-19T02:54:56;26.45;;;15.02;;
67867;SDS011;54672;46.096;14.470;2023-09-19T02:57:22;29.73;;;15.52;;
67867;SDS011;54672;46.096;14.470;2023-09-19T02:59:49;33.95;;;16.63;;
67867;SDS011;54672;46.096;14.470;2023-09-19T03:02:14;33.65;;;15.10;;
67867;SDS011;54672;46.096;14.470;2023-09-19T03:04:41;32.90;;;16.13;;
67867;SDS011;54672;46.096;14.470;2023-09-19T03:07:06;34.25;;;16.67;;
67867;SDS011;54672;46.096;14.470;2023-09-19T03:09:32;31.20;;;16.30;;
67867;SDS011;54672;46.096;14.470;2023-09-19T03:11:57;37.53;;;16.73;;
67867;SDS011;54672;46.096;14.470;2023-09-19T03:14:23;32.00;;;16.15;;
67867;SDS011;54672;46.096;14.470;2023-09-19T03:16:48;36.60;;;16.58;;
67867;SDS011;54672;46.096;14.470;2023-09-19T03:19:14;33.88;;;16.20;;
67867;SDS011;54672;46.096;14.470;2023-09-19T03:21:40;36.50;;;17.02;;
67867;SDS011;54672;46.096;14.470;2023-09-19T03:24:05;32.50;;;16.58;;
67867;SDS011;54672;46.096;14.470;2023-09-19T03:26:31;26.88;;;15.95;;
67867;SDS011;54672;46.096;14.470;2023-09-19T03:28:58;32.75;;;14.65;;
67867;SDS011;54672;46.096;14.470;2023-09-19T03:31:23;28.42;;;15.27;;
67867;SDS011;54672;46.096;14.470;2023-09-19T03:33:49;32.83;;;15.10;;
67867;SDS011;54672;46.096;14.470;2023-09-19T03:36:14;30.13;;;16.17;;
67867;SDS011;54672;46.096;14.470;2023-09-19T03:38:40;31.55;;;15.40;;
67867;SDS011;54672;46.096;14.470;2023-09-19T03:41:05;28.95;;;14.18;;
67867;SDS011;54672;46.096;14.470;2023-09-19T03:43:33;25.65;;;13.20;;
67867;SDS011;54672;46.096;14.470;2023-09-19T03:46:02;26.80;;;13.23;;
67867;SDS011;54672;46.096;14.470;2023-09-19T03:48:30;29.13;;;14.18;;
67867;SDS011;54672;46.096;14.470;2023-09-19T03:50:56;23.20;;;12.48;;
67867;SDS011;54672;46.096;14.470;2023-09-19T03:53:22;25.80;;;13.07;;
67867;SDS011;54672;46.096;14.470;2023-09-19T03:55:47;25.60;;;13.52;;
67867;SDS011;54672;46.096;14.470;2023-09-19T03:58:13;25.35;;;13.27;;
67867;SDS011;54672;46.096;14.470;2023-09-19T04:00:39;29.17;;;13.65;;
67867;SDS011;54672;46.096;14.470;2023-09-19T04:03:04;24.70;;;12.23;;
67867;SDS011;54672;46.096;14.470;2023-09-19T04:05:31;27.70;;;13.65;;
67867;SDS011;54672;46.096;14.470;2023-09-19T04:07:57;22.20;;;12.35;;
67867;SDS011;54672;46.096;14.470;2023-09-19T04:10:23;21.77;;;11.73;;
67867;SDS011;54672;46.096;14.470;2023-09-19T04:12:54;21.88;;;10.25;;
67867;SDS011;54672;46.096;14.470;2023-09-19T04:15:21;20.77;;;9.95;;
67867;SDS011;54672;46.096;14.470;2023-09-19T04:17:48;16.30;;;9.20;;
67867;SDS011;54672;46.096;14.470;2023-09-19T04:20:17;13.90;;;6.50;;
67867;SDS011;54672;46.096;14.470;2023-09-19T04:22:44;7.07;;;3.40;;
67867;SDS011;54672;46.096;14.470;2023-09-19T04:25:11;5.65;;;2.55;;
67867;SDS011;54672;46.096;14.470;2023-09-19T04:27:36;5.60;;;1.95;;
67867;SDS011;54672;46.096;14.470;2023-09-19T04:30:03;3.83;;;2.13;;
67867;SDS011;54672;46.096;14.470;2023-09-19T04:32:35;3.42;;;2.00;;
67867;SDS011;54672;46.096;14.470;2023-09-19T04:35:01;3.60;;;2.15;;
67867;SDS011;54672;46.096;14.470;2023-09-19T04:37:30;1.45;;;0.93;;
67867;SDS011;54672;46.096;14.470;2023-09-19T04:39:56;1.80;;;1.10;;
67867;SDS011;54672;46.096;14.470;2023-09-19T04:42:21;0.88;;;0.70;;
67867;SDS011;54672;46.096;14.470;2023-09-19T04:44:49;1.20;;;0.60;;
67867;SDS011;54672;46.096;14.470;2023-09-19T04:47:15;2.58;;;0.55;;
67867;SDS011;54672;46.096;14.470;2023-09-19T04:49:41;1.85;;;0.60;;
67867;SDS011;54672;46.096;14.470;2023-09-19T04:52:06;3.90;;;0.73;;
67867;SDS011;54672;46.096;14.470;2023-09-19T04:54:32;2.03;;;0.73;;
67867;SDS011;54672;46.096;14.470;2023-09-19T04:56:59;1.15;;;0.80;;
67867;SDS011;54672;46.096;14.470;2023-09-19T04:59:25;4.93;;;0.90;;
67867;SDS011;54672;46.096;14.470;2023-09-19T05:01:50;3.50;;;0.90;;
67867;SDS011;54672;46.096;14.470;2023-09-19T05:04:16;1.98;;;0.70;;
67867;SDS011;54672;46.096;14.470;2023-09-19T05:06:41;4.15;;;1.00;;
67867;SDS011;54672;46.096;14.470;2023-09-19T05:09:07;5.15;;;1.10;;
67867;SDS011;54672;46.096;14.470;2023-09-19T05:11:33;3.50;;;1.10;;
67867;SDS011;54672;46.096;14.470;2023-09-19T05:13:59;3.10;;;1.30;;
67867;SDS011;54672;46.096;14.470;2023-09-19T05:16:28;5.13;;;1.42;;
67867;SDS011;54672;46.096;14.470;2023-09-19T05:18:56;3.15;;;1.35;;
67867;SDS011;54672;46.096;14.470;2023-09-19T05:21:23;5.53;;;2.47;;
67867;SDS011;54672;46.096;14.470;2023-09-19T05:23:51;4.35;;;2.00;;
67867;SDS011;54672;46.096;14.470;2023-09-19T05:26:17;2.55;;;1.30;;
67867;SDS011;54672;46.096;14.470;2023-09-19T05:28:43;4.80;;;1.20;;
67867;SDS011;54672;46.096;14.470;2023-09-19T05:31:08;2.75;;;1.17;;
67867;SDS011;54672;46.096;14.470;2023-09-19T05:33:34;2.97;;;1.10;;
67867;SDS011;54672;46.096;14.470;2023-09-19T05:35:59;2.08;;;1.00;;
67867;SDS011;54672;46.096;14.470;2023-09-19T05:38:25;2.90;;;1.08;;
67867;SDS011;54672;46.096;14.470;2023-09-19T05:40:52;4.22;;;1.30;;
67867;SDS011;54672;46.096;14.470;2023-09-19T05:43:19;1.63;;;1.10;;
67867;SDS011;54672;46.096;14.470;2023-09-19T05:45:44;2.53;;;1.10;;
67867;SDS011;54672;46.096;14.470;2023-09-19T05:48:11;1.80;;;1.20;;
67867;SDS011;54672;46.096;14.470;2023-09-19T05:50:38;6.03;;;1.60;;
67867;SDS011;54672;46.096;14.470;2023-09-19T05:53:04;3.63;;;1.55;;
67867;SDS011;54672;46.096;14.470;2023-09-19T05:55:29;2.38;;;0.80;;
67867;SDS011;54672;46.096;14.470;2023-09-19T05:57:55;2.25;;;0.77;;
67867;SDS011;54672;46.096;14.470;2023-09-19T06:00:21;1.13;;;0.55;;
67867;SDS011;54672;46.096;14.470;2023-09-19T06:05:20;1.95;;;1.00;;
67867;SDS011;54672;46.096;14.470;2023-09-19T06:07:46;2.80;;;1.30;;
67867;SDS011;54672;46.096;14.470;2023-09-19T06:10:11;4.45;;;1.50;;
67867;SDS011;54672;46.096;14.470;2023-09-19T06:12:38;4.63;;;1.50;;
67867;SDS011;54672;46.096;14.470;2023-09-19T06:15:09;3.60;;;1.70;;
67867;SDS011;54672;46.096;14.470;2023-09-19T06:17:37;4.47;;;1.50;;
67867;SDS011;54672;46.096;14.470;2023-09-19T06:20:06;4.22;;;1.55;;
67867;SDS011;54672;46.096;14.470;2023-09-19T06:22:39;3.65;;;1.73;;
67867;SDS011;54672;46.096;14.470;2023-09-19T06:25:06;4.63;;;1.77;;
67867;SDS011;54672;46.096;14.470;2023-09-19T06:27:32;4.43;;;1.33;;
67867;SDS011;54672;46.096;14.470;2023-09-19T06:29:58;5.75;;;1.38;;
67867;SDS011;54672;46.096;14.470;2023-09-19T06:32:29;3.55;;;1.80;;
67867;SDS011;54672;46.096;14.470;2023-09-19T06:34:54;3.97;;;1.70;;
67867;SDS011;54672;46.096;14.470;2023-09-19T06:37:20;3.97;;;1.60;;
67867;SDS011;54672;46.096;14.470;2023-09-19T06:39:47;4.88;;;1.70;;
67867;SDS011;54672;46.096;14.470;2023-09-19T06:42:14;2.53;;;1.70;;
67867;SDS011;54672;46.096;14.470;2023-09-19T06:44:42;5.13;;;2.30;;
67867;SDS011;54672;46.096;14.470;2023-09-19T06:47:08;4.03;;;1.63;;
67867;SDS011;54672;46.096;14.470;2023-09-19T06:49:35;3.47;;;1.83;;
67867;SDS011;54672;46.096;14.470;2023-09-19T06:52:00;4.72;;;2.38;;
67867;SDS011;54672;46.096;14.470;2023-09-19T06:54:26;10.93;;;2.65;;
67867;SDS011;54672;46.096;14.470;2023-09-19T06:56:56;7.45;;;3.17;;
67867;SDS011;54672;46.096;14.470;2023-09-19T06:59:24;5.05;;;1.63;;
67867;SDS011;54672;46.096;14.470;2023-09-19T07:01:49;4.50;;;2.00;;
67867;SDS011;54672;46.096;14.470;2023-09-19T07:04:16;3.78;;;1.70;;
67867;SDS011;54672;46.096;14.470;2023-09-19T07:06:42;3.53;;;1.70;;
67867;SDS011;54672;46.096;14.470;2023-09-19T07:09:08;6.95;;;2.10;;
67867;SDS011;54672;46.096;14.470;2023-09-19T07:11:33;3.55;;;1.65;;
67867;SDS011;54672;46.096;14.470;2023-09-19T07:13:59;13.48;;;2.70;;
67867;SDS011;54672;46.096;14.470;2023-09-19T07:16:28;14.23;;;3.08;;
67867;SDS011;54672;46.096;14.470;2023-09-19T07:18:54;5.10;;;1.90;;
67867;SDS011;54672;46.096;14.470;2023-09-19T07:21:23;9.05;;;1.75;;
67867;SDS011;54672;46.096;14.470;2023-09-19T07:23:49;3.17;;;1.65;;
67867;SDS011;54672;46.096;14.470;2023-09-19T07:26:15;2.58;;;1.70;;
67867;SDS011;54672;46.096;14.470;2023-09-19T07:28:41;3.50;;;1.90;;
67867;SDS011;54672;46.096;14.470;2023-09-19T07:31:06;5.22;;;1.50;;
67867;SDS011;54672;46.096;14.470;2023-09-19T07:33:35;2.72;;;1.80;;
67867;SDS011;54672;46.096;14.470;2023-09-19T07:36:01;7.82;;;1.75;;
67867;SDS011;54672;46.096;14.470;2023-09-19T07:38:27;3.60;;;1.83;;
67867;SDS011;54672;46.096;14.470;2023-09-19T07:40:52;5.65;;;1.48;;
67867;SDS011;54672;46.096;14.470;2023-09-19T07:43:18;3.80;;;1.67;;
67867;SDS011;54672;46.096;14.470;2023-09-19T07:45:43;3.45;;;1.95;;
67867;SDS011;54672;46.096;14.470;2023-09-19T07:48:09;6.00;;;1.83;;
67867;SDS011;54672;46.096;14.470;2023-09-19T07:50:39;3.50;;;1.88;;
67867;SDS011;54672;46.096;14.470;2023-09-19T07:53:05;3.38;;;1.60;;
67867;SDS011;54672;46.096;14.470;2023-09-19T07:55:31;3.67;;;1.90;;
67867;SDS011;54672;46.096;14.470;2023-09-19T07:57:58;5.10;;;1.90;;
67867;SDS011;54672;46.096;14.470;2023-09-19T08:00:24;3.33;;;1.40;;
67867;SDS011;54672;46.096;14.470;2023-09-19T08:02:49;3.75;;;1.50;;
67867;SDS011;54672;46.096;14.470;2023-09-19T08:05:16;4.00;;;2.03;;
67867;SDS011;54672;46.096;14.470;2023-09-19T08:07:43;4.60;;;2.40;;
67867;SDS011;54672;46.096;14.470;2023-09-19T08:10:13;12.20;;;2.95;;
67867;SDS011;54672;46.096;14.470;2023-09-19T08:12:40;13.95;;;3.70;;
67867;SDS011;54672;46.096;14.470;2023-09-19T08:15:13;10.13;;;3.65;;
67867;SDS011;54672;46.096;14.470;2023-09-19T08:17:39;10.50;;;3.30;;
67867;SDS011;54672;46.096;14.470;2023-09-19T08:20:05;6.90;;;2.33;;
67867;SDS011;54672;46.096;14.470;2023-09-19T08:22:32;7.28;;;2.58;;
67867;SDS011;54672;46.096;14.470;2023-09-19T08:24:57;3.35;;;1.60;;
67867;SDS011;54672;46.096;14.470;2023-09-19T08:27:23;6.10;;;2.67;;
67867;SDS011;54672;46.096;14.470;2023-09-19T08:29:52;7.63;;;3.15;;
67867;SDS011;54672;46.096;14.470;2023-09-19T08:32:17;3.90;;;2.63;;
67867;SDS011;54672;46.096;14.470;2023-09-19T08:34:48;4.90;;;2.60;;
67867;SDS011;54672;46.096;14.470;2023-09-19T08:37:14;5.93;;;2.15;;
67867;SDS011;54672;46.096;14.470;2023-09-19T08:39:40;3.67;;;1.80;;
67867;SDS011;54672;46.096;14.470;2023-09-19T08:42:06;3.63;;;1.60;;
67867;SDS011;54672;46.096;14.470;2023-09-19T08:44:35;4.07;;;1.45;;
67867;SDS011;54672;46.096;14.470;2023-09-19T08:47:10;5.03;;;1.90;;
67867;SDS011;54672;46.096;14.470;2023-09-19T08:52:28;3.13;;;1.90;;
67867;SDS011;54672;46.096;14.470;2023-09-19T08:55:01;3.58;;;2.00;;
67867;SDS011;54672;46.096;14.470;2023-09-19T08:57:32;5.53;;;2.22;;
67867;SDS011;54672;46.096;14.470;2023-09-19T08:59:59;4.38;;;2.30;;
67867;SDS011;54672;46.096;14.470;2023-09-19T09:02:27;7.13;;;3.17;;
67867;SDS011;54672;46.096;14.470;2023-09-19T09:04:53;5.13;;;2.20;;
67867;SDS011;54672;46.096;14.470;2023-09-19T09:07:19;4.80;;;2.20;;
67867;SDS011;54672;46.096;14.470;2023-09-19T09:09:46;7.57;;;2.83;;
67867;SDS011;54672;46.096;14.470;2023-09-19T09:12:13;4.53;;;2.30;;
67867;SDS011;54672;46.096;14.470;2023-09-19T09:14:40;4.80;;;2.30;;
67867;SDS011;54672;46.096;14.470;2023-09-19T09:17:10;5.05;;;2.30;;
67867;SDS011;54672;46.096;14.470;2023-09-19T09:19:36;5.10;;;2.20;;
67867;SDS011;54672;46.096;14.470;2023-09-19T09:22:05;4.22;;;2.08;;
67867;SDS011;54672;46.096;14.470;2023-09-19T09:24:32;4.72;;;2.50;;
67867;SDS011;54672;46.096;14.470;2023-09-19T09:27:06;5.53;;;2.45;;
67867;SDS011;54672;46.096;14.470;2023-09-19T09:29:46;4.82;;;2.80;;
67867;SDS011;54672;46.096;14.470;2023-09-19T09:32:29;7.80;;;2.20;;
67867;SDS011;54672;46.096;14.470;2023-09-19T09:34:59;4.18;;;2.05;;
67867;SDS011;54672;46.096;14.470;2023-09-19T09:37:25;3.47;;;2.08;;
67867;SDS011;54672;46.096;14.470;2023-09-19T09:42:44;5.65;;;2.28;;
67867;SDS011;54672;46.096;14.470;2023-09-19T09:45:18;5.53;;;2.55;;
67867;SDS011;54672;46.096;14.470;2023-09-19T09:48:02;5.15;;;2.15;;
67867;SDS011;54672;46.096;14.470;2023-09-19T09:50:29;7.35;;;2.67;;
67867;SDS011;54672;46.096;14.470;2023-09-19T09:53:20;4.25;;;2.17;;
67867;SDS011;54672;46.096;14.470;2023-09-19T09:55:59;4.03;;;2.40;;
67867;SDS011;54672;46.096;14.470;2023-09-19T10:01:14;8.07;;;2.65;;
67867;SDS011;54672;46.096;14.470;2023-09-19T10:03:41;5.40;;;2.53;;
67867;SDS011;54672;46.096;14.470;2023-09-19T10:06:14;4.18;;;2.25;;
67867;SDS011;54672;46.096;14.470;2023-09-19T10:09:06;4.35;;;2.25;;
67867;SDS011;54672;46.096;14.470;2023-09-19T10:11:42;4.15;;;2.15;;
67867;SDS011;54672;46.096;14.470;2023-09-19T10:14:10;6.40;;;2.80;;
67867;SDS011;54672;46.096;14.470;2023-09-19T10:16:40;7.60;;;2.88;;
67867;SDS011;54672;46.096;14.470;2023-09-19T10:19:11;4.93;;;2.45;;
67867;SDS011;54672;46.096;14.470;2023-09-19T10:21:41;5.65;;;2.50;;
67867;SDS011;54672;46.096;14.470;2023-09-19T10:24:08;5.03;;;2.60;;
67867;SDS011;54672;46.096;14.470;2023-09-19T10:26:35;8.95;;;3.17;;
67867;SDS011;54672;46.096;14.470;2023-09-19T10:29:02;9.18;;;2.75;;
67867;SDS011;54672;46.096;14.470;2023-09-19T10:31:32;5.65;;;2.72;;
67867;SDS011;54672;46.096;14.470;2023-09-19T10:34:00;4.75;;;2.70;;
67867;SDS011;54672;46.096;14.470;2023-09-19T10:36:29;3.75;;;1.92;;
67867;SDS011;54672;46.096;14.470;2023-09-19T10:38:59;4.10;;;1.60;;
67867;SDS011;54672;46.096;14.470;2023-09-19T10:41:32;4.27;;;2.00;;
67867;SDS011;54672;46.096;14.470;2023-09-19T10:44:02;4.57;;;1.92;;
67867;SDS011;54672;46.096;14.470;2023-09-19T10:46:31;3.58;;;1.80;;
67867;SDS011;54672;46.096;14.470;2023-09-19T10:48:58;6.68;;;1.50;;
67867;SDS011;54672;46.096;14.470;2023-09-19T10:51:25;6.60;;;1.48;;
67867;SDS011;54672;46.096;14.470;2023-09-19T10:53:59;4.82;;;1.40;;
67867;SDS011;54672;46.096;14.470;2023-09-19T10:56:33;4.03;;;1.98;;
67867;SDS011;54672;46.096;14.470;2023-09-19T11:01:55;4.13;;;1.98;;
67867;SDS011;54672;46.096;14.470;2023-09-19T11:07:04;5.32;;;2.45;;
67867;SDS011;54672;46.096;14.470;2023-09-19T11:09:49;3.90;;;2.03;;
67867;SDS011;54672;46.096;14.470;2023-09-19T11:15:06;4.72;;;1.48;;
67867;SDS011;54672;46.096;14.470;2023-09-19T11:17:37;2.17;;;1.42;;
67867;SDS011;54672;46.096;14.470;2023-09-19T11:30:47;2.45;;;1.60;;
67867;SDS011;54672;46.096;14.470;2023-09-19T11:33:29;4.63;;;1.90;;
67867;SDS011;54672;46.096;14.470;2023-09-19T11:47:14;3.10;;;1.40;;
67867;SDS011;54672;46.096;14.470;2023-09-19T11:49:18;3.15;;;1.75;;
67867;SDS011;54672;46.096;14.470;2023-09-19T11:51:50;3.22;;;1.58;;
67867;SDS011;54672;46.096;14.470;2023-09-19T11:54:20;3.00;;;1.58;;
67867;SDS011;54672;46.096;14.470;2023-09-19T11:56:50;2.55;;;1.60;;
67867;SDS011;54672;46.096;14.470;2023-09-19T11:59:26;1.52;;;1.10;;
67867;SDS011;54672;46.096;14.470;2023-09-19T12:01:54;5.22;;;1.80;;
67867;SDS011;54672;46.096;14.470;2023-09-19T12:09:36;3.00;;;1.40;;
67867;SDS011;54672;46.096;14.470;2023-09-19T12:12:04;4.03;;;1.58;;
67867;SDS011;54672;46.096;14.470;2023-09-19T12:14:30;2.70;;;1.30;;
67867;SDS011;54672;46.096;14.470;2023-09-19T12:16:56;3.35;;;1.52;;
67867;SDS011;54672;46.096;14.470;2023-09-19T12:19:23;3.45;;;1.48;;
67867;SDS011;54672;46.096;14.470;2023-09-19T12:21:59;3.28;;;1.50;;
67867;SDS011;54672;46.096;14.470;2023-09-19T12:24:29;4.50;;;1.90;;
67867;SDS011;54672;46.096;14.470;2023-09-19T12:27:06;2.97;;;1.58;;
67867;SDS011;54672;46.096;14.470;2023-09-19T12:29:41;4.68;;;1.85;;
67867;SDS011;54672;46.096;14.470;2023-09-19T12:32:10;3.13;;;1.73;;
67867;SDS011;54672;46.096;14.470;2023-09-19T12:34:36;3.35;;;1.75;;
67867;SDS011;54672;46.096;14.470;2023-09-19T12:39:51;4.47;;;2.22;;
67867;SDS011;54672;46.096;14.470;2023-09-19T12:42:25;4.90;;;1.80;;
67867;SDS011;54672;46.096;14.470;2023-09-19T12:44:58;4.07;;;1.75;;
67867;SDS011;54672;46.096;14.470;2023-09-19T12:47:26;3.05;;;1.58;;
67867;SDS011;54672;46.096;14.470;2023-09-19T12:50:13;3.20;;;1.52;;
67867;SDS011;54672;46.096;14.470;2023-09-19T12:52:48;6.75;;;1.80;;
67867;SDS011;54672;46.096;14.470;2023-09-19T12:55:21;3.40;;;1.90;;
67867;SDS011;54672;46.096;14.470;2023-09-19T12:58:13;5.22;;;1.70;;
67867;SDS011;54672;46.096;14.470;2023-09-19T13:00:43;2.92;;;1.70;;
67867;SDS011;54672;46.096;14.470;2023-09-19T13:03:25;2.40;;;1.40;;
67867;SDS011;54672;46.096;14.470;2023-09-19T13:05:55;4.07;;;1.50;;
67867;SDS011;54672;46.096;14.470;2023-09-19T13:11:05;2.75;;;1.20;;
67867;SDS011;54672;46.096;14.470;2023-09-19T13:13:37;2.67;;;1.38;;
67867;SDS011;54672;46.096;14.470;2023-09-19T13:16:03;3.88;;;1.40;;
67867;SDS011;54672;46.096;14.470;2023-09-19T13:18:41;3.10;;;1.40;;
67867;SDS011;54672;46.096;14.470;2023-09-19T13:21:11;3.88;;;1.40;;
67867;SDS011;54672;46.096;14.470;2023-09-19T13:23:48;2.60;;;1.48;;
67867;SDS011;54672;46.096;14.470;2023-09-19T13:26:15;2.00;;;1.33;;
67867;SDS011;54672;46.096;14.470;2023-09-19T13:28:40;4.38;;;1.58;;
67867;SDS011;54672;46.096;14.470;2023-09-19T13:31:06;3.72;;;1.58;;
67867;SDS011;54672;46.096;14.470;2023-09-19T13:33:33;3.45;;;1.50;;
67867;SDS011;54672;46.096;14.470;2023-09-19T13:35:59;3.70;;;1.80;;
67867;SDS011;54672;46.096;14.470;2023-09-19T13:38:24;2.97;;;1.65;;
67867;SDS011;54672;46.096;14.470;2023-09-19T13:40:50;3.95;;;1.45;;
67867;SDS011;54672;46.096;14.470;2023-09-19T13:43:17;3.13;;;1.30;;
67867;SDS011;54672;46.096;14.470;2023-09-19T13:45:43;2.65;;;1.45;;
67867;SDS011;54672;46.096;14.470;2023-09-19T13:48:08;2.85;;;1.45;;
67867;SDS011;54672;46.096;14.470;2023-09-19T13:50:37;4.70;;;1.80;;
67867;SDS011;54672;46.096;14.470;2023-09-19T13:53:07;4.38;;;1.50;;
67867;SDS011;54672;46.096;14.470;2023-09-19T13:55:33;2.92;;;1.45;;
67867;SDS011;54672;46.096;14.470;2023-09-19T13:57:58;3.15;;;1.50;;
67867;SDS011;54672;46.096;14.470;2023-09-19T14:00:24;2.65;;;1.33;;
67867;SDS011;54672;46.096;14.470;2023-09-19T14:02:49;2.63;;;1.30;;
67867;SDS011;54672;46.096;14.470;2023-09-19T14:05:15;2.70;;;1.40;;
67867;SDS011;54672;46.096;14.470;2023-09-19T14:07:45;3.65;;;1.42;;
67867;SDS011;54672;46.096;14.470;2023-09-19T14:10:11;3.45;;;1.33;;
67867;SDS011;54672;46.096;14.470;2023-09-19T14:12:37;2.38;;;1.50;;
67867;SDS011;54672;46.096;14.470;2023-09-19T14:15:05;1.88;;;1.20;;
67867;SDS011;54672;46.096;14.470;2023-09-19T14:17:32;2.60;;;1.17;;
67867;SDS011;54672;46.096;14.470;2023-09-19T14:19:58;3.38;;;1.25;;
67867;SDS011;54672;46.096;14.470;2023-09-19T14:22:23;1.88;;;1.00;;
67867;SDS011;54672;46.096;14.470;2023-09-19T14:24:48;5.03;;;1.38;;
67867;SDS011;54672;46.096;14.470;2023-09-19T14:27:14;2.80;;;1.40;;
67867;SDS011;54672;46.096;14.470;2023-09-19T14:29:39;3.20;;;1.38;;
67867;SDS011;54672;46.096;14.470;2023-09-19T14:32:06;2.25;;;1.23;;
67867;SDS011;54672;46.096;14.470;2023-09-19T14:34:31;1.95;;;1.25;;
67867;SDS011;54672;46.096;14.470;2023-09-19T14:36:58;2.03;;;1.20;;
67867;SDS011;54672;46.096;14.470;2023-09-19T14:39:23;2.13;;;1.30;;
67867;SDS011;54672;46.096;14.470;2023-09-19T14:41:50;3.65;;;1.40;;
67867;SDS011;54672;46.096;14.470;2023-09-19T14:44:15;3.80;;;1.98;;
67867;SDS011;54672;46.096;14.470;2023-09-19T14:46:41;4.65;;;1.80;;
67867;SDS011;54672;46.096;14.470;2023-09-19T14:49:08;3.35;;;1.50;;
67867;SDS011;54672;46.096;14.470;2023-09-19T14:51:35;2.30;;;1.40;;
67867;SDS011;54672;46.096;14.470;2023-09-19T14:54:00;2.17;;;1.30;;
67867;SDS011;54672;46.096;14.470;2023-09-19T14:56:27;2.65;;;1.42;;
67867;SDS011;54672;46.096;14.470;2023-09-19T14:58:55;3.47;;;1.60;;
67867;SDS011;54672;46.096;14.470;2023-09-19T15:01:20;3.25;;;1.52;;
67867;SDS011;54672;46.096;14.470;2023-09-19T15:03:47;2.28;;;1.55;;
67867;SDS011;54672;46.096;14.470;2023-09-19T15:06:15;6.97;;;1.65;;
67867;SDS011;54672;46.096;14.470;2023-09-19T15:08:43;2.90;;;1.40;;
67867;SDS011;54672;46.096;14.470;2023-09-19T15:11:12;3.17;;;1.48;;
67867;SDS011;54672;46.096;14.470;2023-09-19T15:13:47;3.20;;;1.50;;
67867;SDS011;54672;46.096;14.470;2023-09-19T15:16:15;2.42;;;1.27;;
67867;SDS011;54672;46.096;14.470;2023-09-19T15:18:41;2.90;;;1.20;;
67867;SDS011;54672;46.096;14.470;2023-09-19T15:21:12;3.08;;;1.17;;
67867;SDS011;54672;46.096;14.470;2023-09-19T15:23:39;2.95;;;1.27;;
67867;SDS011;54672;46.096;14.470;2023-09-19T15:26:10;2.25;;;1.23;;
67867;SDS011;54672;46.096;14.470;2023-09-19T15:28:37;3.05;;;1.52;;
67867;SDS011;54672;46.096;14.470;2023-09-19T15:31:10;3.40;;;1.38;;
67867;SDS011;54672;46.096;14.470;2023-09-19T15:33:37;2.60;;;1.40;;
67867;SDS011;54672;46.096;14.470;2023-09-19T15:36:06;1.88;;;1.40;;
67867;SDS011;54672;46.096;14.470;2023-09-19T15:41:21;2.78;;;1.50;;